Terminal Aerodrome Forecast
Issued by NWS Mt. Holly, NJ

Home | Current Version | Previous Version | Text Only | Print | Product List | Glossary On
Versions: 1 2 3 4 5 6 7 8 9 10 11 12 13 14 15 16 17 18 19 20
000
FTUS41 KPHI 231840 AAA
TAFTTN
TAF AMD
KTTN 231840Z 2319/2418 22010KT P6SM BKN025
     FM232000 24010KT P6SM VCSH BKN045
      TEMPO 2322/2402 4SM -TSRA BKN025CB
     FM240300 23008KT P6SM OVC090 WS020/23040KT
     FM240800 22007KT 4SM TSRA BKN030CB
     FM241100 30006KT P6SM OVC050=

USA.gov is the U.S. government's official web portal to all federal, state and local government web resources and services.